sensor_id;sensor_type;location;lat;lon;timestamp;pressure;altitude;pressure_sealevel;temperature;humidity
53719;BME280;39616;48.872;9.390;2024-02-14T00:01:10;98805.00;;;1.76;100.00
53719;BME280;39616;48.872;9.390;2024-02-14T00:03:40;98800.34;;;1.71;100.00
53719;BME280;39616;48.872;9.390;2024-02-14T00:06:11;98802.94;;;1.78;100.00
53719;BME280;39616;48.872;9.390;2024-02-14T00:08:43;98800.03;;;1.91;100.00
53719;BME280;39616;48.872;9.390;2024-02-14T00:11:13;98799.03;;;1.92;100.00
53719;BME280;39616;48.872;9.390;2024-02-14T00:13:44;98807.28;;;2.02;100.00
53719;BME280;39616;48.872;9.390;2024-02-14T00:16:14;98799.16;;;2.09;100.00
53719;BME280;39616;48.872;9.390;2024-02-14T00:18:44;98807.09;;;2.15;100.00
53719;BME280;39616;48.872;9.390;2024-02-14T00:21:15;98798.16;;;2.22;100.00
53719;BME280;39616;48.872;9.390;2024-02-14T00:23:45;98791.84;;;2.28;100.00
53719;BME280;39616;48.872;9.390;2024-02-14T00:26:16;98801.28;;;2.30;100.00
53719;BME280;39616;48.872;9.390;2024-02-14T00:28:46;98795.03;;;2.36;100.00
53719;BME280;39616;48.872;9.390;2024-02-14T00:31:16;98799.09;;;2.39;100.00
53719;BME280;39616;48.872;9.390;2024-02-14T00:33:47;98798.28;;;2.38;100.00
53719;BME280;39616;48.872;9.390;2024-02-14T00:36:17;98805.94;;;2.35;100.00
53719;BME280;39616;48.872;9.390;2024-02-14T00:38:47;98804.94;;;2.36;100.00
53719;BME280;39616;48.872;9.390;2024-02-14T00:41:18;98800.72;;;2.40;100.00
53719;BME280;39616;48.872;9.390;2024-02-14T00:43:48;98796.41;;;2.39;100.00
53719;BME280;39616;48.872;9.390;2024-02-14T00:46:18;98792.25;;;2.43;100.00
53719;BME280;39616;48.872;9.390;2024-02-14T00:48:49;98789.31;;;2.45;100.00
53719;BME280;39616;48.872;9.390;2024-02-14T00:51:21;98781.41;;;2.50;100.00
53719;BME280;39616;48.872;9.390;2024-02-14T00:53:52;98796.28;;;2.57;100.00
53719;BME280;39616;48.872;9.390;2024-02-14T00:56:22;98793.03;;;2.67;100.00
53719;BME280;39616;48.872;9.390;2024-02-14T00:58:53;98793.63;;;2.69;100.00
53719;BME280;39616;48.872;9.390;2024-02-14T01:01:24;98793.03;;;2.79;100.00
53719;BME280;39616;48.872;9.390;2024-02-14T01:03:55;98802.09;;;2.89;100.00
53719;BME280;39616;48.872;9.390;2024-02-14T01:06:26;98800.13;;;2.97;100.00
53719;BME280;39616;48.872;9.390;2024-02-14T01:08:56;98794.75;;;3.08;100.00
53719;BME280;39616;48.872;9.390;2024-02-14T01:11:26;98805.09;;;3.17;100.00
53719;BME280;39616;48.872;9.390;2024-02-14T01:13:58;98804.75;;;3.25;100.00
53719;BME280;39616;48.872;9.390;2024-02-14T01:16:28;98810.28;;;3.35;100.00
53719;BME280;39616;48.872;9.390;2024-02-14T01:18:59;98801.78;;;3.67;100.00
53719;BME280;39616;48.872;9.390;2024-02-14T01:21:29;98791.44;;;4.04;100.00
53719;BME280;39616;48.872;9.390;2024-02-14T01:23:59;98791.81;;;4.24;100.00
53719;BME280;39616;48.872;9.390;2024-02-14T01:26:29;98793.44;;;4.42;100.00
53719;BME280;39616;48.872;9.390;2024-02-14T01:29:00;98798.47;;;4.55;100.00
53719;BME280;39616;48.872;9.390;2024-02-14T01:31:31;98789.16;;;4.63;100.00
53719;BME280;39616;48.872;9.390;2024-02-14T01:34:02;98795.94;;;4.66;100.00
53719;BME280;39616;48.872;9.390;2024-02-14T01:36:32;98790.31;;;4.67;100.00
53719;BME280;39616;48.872;9.390;2024-02-14T01:39:02;98789.06;;;4.75;100.00
53719;BME280;39616;48.872;9.390;2024-02-14T01:41:33;98785.41;;;4.81;99.51
53719;BME280;39616;48.872;9.390;2024-02-14T01:44:03;98782.59;;;4.93;95.98
53719;BME280;39616;48.872;9.390;2024-02-14T01:46:33;98787.94;;;5.09;95.45
53719;BME280;39616;48.872;9.390;2024-02-14T01:49:04;98783.69;;;5.14;93.56
53719;BME280;39616;48.872;9.390;2024-02-14T01:51:35;98778.38;;;5.19;94.80
53719;BME280;39616;48.872;9.390;2024-02-14T01:54:06;98787.50;;;5.18;94.75
53719;BME280;39616;48.872;9.390;2024-02-14T01:56:36;98777.19;;;5.09;94.53
53719;BME280;39616;48.872;9.390;2024-02-14T01:59:09;98784.75;;;5.13;95.42
53719;BME280;39616;48.872;9.390;2024-02-14T02:01:39;98779.56;;;5.06;95.18
53719;BME280;39616;48.872;9.390;2024-02-14T02:04:10;98771.75;;;5.04;96.74
53719;BME280;39616;48.872;9.390;2024-02-14T02:06:40;98778.31;;;5.14;94.97
53719;BME280;39616;48.872;9.390;2024-02-14T02:09:11;98781.06;;;5.19;94.71
53719;BME280;39616;48.872;9.390;2024-02-14T02:11:45;98776.31;;;5.26;93.10
53719;BME280;39616;48.872;9.390;2024-02-14T02:14:16;98776.63;;;5.29;94.60
53719;BME280;39616;48.872;9.390;2024-02-14T02:16:46;98782.88;;;5.35;92.88
53719;BME280;39616;48.872;9.390;2024-02-14T02:19:17;98778.34;;;5.41;92.55
53719;BME280;39616;48.872;9.390;2024-02-14T02:21:47;98777.63;;;5.45;92.12
53719;BME280;39616;48.872;9.390;2024-02-14T02:24:18;98788.44;;;5.50;92.30
53719;BME280;39616;48.872;9.390;2024-02-14T02:26:48;98779.25;;;5.46;90.98
53719;BME280;39616;48.872;9.390;2024-02-14T02:29:18;98772.28;;;5.50;92.06
53719;BME280;39616;48.872;9.390;2024-02-14T02:31:49;98777.41;;;5.52;91.84
53719;BME280;39616;48.872;9.390;2024-02-14T02:34:20;98772.59;;;5.54;90.53
53719;BME280;39616;48.872;9.390;2024-02-14T02:36:50;98769.88;;;5.49;91.36
53719;BME280;39616;48.872;9.390;2024-02-14T02:39:21;98766.88;;;5.45;91.92
53719;BME280;39616;48.872;9.390;2024-02-14T02:41:51;98767.28;;;5.37;92.55
53719;BME280;39616;48.872;9.390;2024-02-14T02:44:21;98764.88;;;5.36;93.44
53719;BME280;39616;48.872;9.390;2024-02-14T02:46:52;98759.44;;;5.30;93.57
53719;BME280;39616;48.872;9.390;2024-02-14T02:49:22;98758.38;;;5.31;94.95
53719;BME280;39616;48.872;9.390;2024-02-14T02:51:52;98754.38;;;5.34;93.93
53719;BME280;39616;48.872;9.390;2024-02-14T02:54:22;98753.03;;;5.37;93.89
53719;BME280;39616;48.872;9.390;2024-02-14T02:56:53;98754.22;;;5.46;92.84
53719;BME280;39616;48.872;9.390;2024-02-14T02:59:23;98752.88;;;5.48;92.87
53719;BME280;39616;48.872;9.390;2024-02-14T03:01:54;98750.50;;;5.52;93.23
53719;BME280;39616;48.872;9.390;2024-02-14T03:04:24;98750.81;;;5.55;93.07
53719;BME280;39616;48.872;9.390;2024-02-14T03:06:55;98746.31;;;5.61;92.35
53719;BME280;39616;48.872;9.390;2024-02-14T03:09:25;98746.03;;;5.63;92.30
53719;BME280;39616;48.872;9.390;2024-02-14T03:11:57;98736.94;;;5.64;92.46
53719;BME280;39616;48.872;9.390;2024-02-14T03:14:31;98731.38;;;5.75;90.63
53719;BME280;39616;48.872;9.390;2024-02-14T03:17:02;98723.63;;;5.79;89.64
53719;BME280;39616;48.872;9.390;2024-02-14T03:19:33;98711.28;;;5.83;89.38
53719;BME280;39616;48.872;9.390;2024-02-14T03:22:08;98713.16;;;5.82;90.72
53719;BME280;39616;48.872;9.390;2024-02-14T03:24:39;98725.19;;;5.75;91.08
53719;BME280;39616;48.872;9.390;2024-02-14T03:27:09;98733.28;;;5.75;91.32
53719;BME280;39616;48.872;9.390;2024-02-14T03:29:39;98736.50;;;5.77;90.81
53719;BME280;39616;48.872;9.390;2024-02-14T03:32:10;98744.56;;;5.77;91.17
53719;BME280;39616;48.872;9.390;2024-02-14T03:34:41;98745.34;;;5.72;91.00
53719;BME280;39616;48.872;9.390;2024-02-14T03:37:11;98746.47;;;5.76;90.38
53719;BME280;39616;48.872;9.390;2024-02-14T03:39:41;98750.63;;;5.62;90.17
53719;BME280;39616;48.872;9.390;2024-02-14T03:42:12;98751.34;;;5.52;91.06
53719;BME280;39616;48.872;9.390;2024-02-14T03:44:43;98752.06;;;5.48;90.83
53719;BME280;39616;48.872;9.390;2024-02-14T03:47:13;98759.53;;;5.41;89.97
53719;BME280;39616;48.872;9.390;2024-02-14T03:49:44;98775.94;;;5.39;90.64
53719;BME280;39616;48.872;9.390;2024-02-14T03:52:14;98772.75;;;5.42;91.69
53719;BME280;39616;48.872;9.390;2024-02-14T03:54:44;98768.78;;;5.50;90.63
53719;BME280;39616;48.872;9.390;2024-02-14T03:57:15;98770.22;;;5.57;91.16
53719;BME280;39616;48.872;9.390;2024-02-14T03:59:46;98775.94;;;5.66;90.38
53719;BME280;39616;48.872;9.390;2024-02-14T04:02:16;98780.13;;;5.79;89.19
53719;BME280;39616;48.872;9.390;2024-02-14T04:04:47;98774.34;;;5.92;86.83
53719;BME280;39616;48.872;9.390;2024-02-14T04:07:17;98773.91;;;6.00;87.19
53719;BME280;39616;48.872;9.390;2024-02-14T04:09:48;98772.25;;;5.99;88.39
53719;BME280;39616;48.872;9.390;2024-02-14T04:12:18;98773.75;;;6.12;86.17
53719;BME280;39616;48.872;9.390;2024-02-14T04:14:48;98771.88;;;6.18;85.95
53719;BME280;39616;48.872;9.390;2024-02-14T04:17:19;98776.28;;;6.29;84.52
53719;BME280;39616;48.872;9.390;2024-02-14T04:19:49;98771.19;;;6.33;84.87
53719;BME280;39616;48.872;9.390;2024-02-14T04:22:19;98764.75;;;6.34;84.37
53719;BME280;39616;48.872;9.390;2024-02-14T04:24:51;98759.69;;;6.42;83.03
53719;BME280;39616;48.872;9.390;2024-02-14T04:27:22;98759.44;;;6.44;83.62
53719;BME280;39616;48.872;9.390;2024-02-14T04:29:52;98769.41;;;6.43;83.98
53719;BME280;39616;48.872;9.390;2024-02-14T04:32:22;98761.38;;;6.48;82.95
53719;BME280;39616;48.872;9.390;2024-02-14T04:34:52;98773.53;;;6.56;82.20
53719;BME280;39616;48.872;9.390;2024-02-14T04:37:23;98770.78;;;6.51;82.70
53719;BME280;39616;48.872;9.390;2024-02-14T04:39:53;98777.56;;;6.53;81.83
53719;BME280;39616;48.872;9.390;2024-02-14T04:42:23;98767.34;;;6.56;81.94
53719;BME280;39616;48.872;9.390;2024-02-14T04:44:54;98779.75;;;6.57;81.69
53719;BME280;39616;48.872;9.390;2024-02-14T04:47:24;98778.66;;;6.58;80.61
53719;BME280;39616;48.872;9.390;2024-02-14T04:49:54;98772.97;;;6.54;81.03
53719;BME280;39616;48.872;9.390;2024-02-14T04:52:24;98782.97;;;6.59;80.53
53719;BME280;39616;48.872;9.390;2024-02-14T04:54:55;98778.94;;;6.61;79.50
53719;BME280;39616;48.872;9.390;2024-02-14T04:57:26;98777.88;;;6.62;79.37
53719;BME280;39616;48.872;9.390;2024-02-14T04:59:56;98783.81;;;6.59;80.36
53719;BME280;39616;48.872;9.390;2024-02-14T05:02:27;98779.75;;;6.62;79.75
53719;BME280;39616;48.872;9.390;2024-02-14T05:04:58;98784.06;;;6.63;79.46
53719;BME280;39616;48.872;9.390;2024-02-14T05:07:28;98785.75;;;6.69;78.68
53719;BME280;39616;48.872;9.390;2024-02-14T05:09:59;98780.09;;;6.70;78.86
53719;BME280;39616;48.872;9.390;2024-02-14T05:12:29;98783.13;;;6.79;78.24
53719;BME280;39616;48.872;9.390;2024-02-14T05:14:59;98785.03;;;6.84;77.36
53719;BME280;39616;48.872;9.390;2024-02-14T05:17:29;98790.94;;;6.81;77.97
53719;BME280;39616;48.872;9.390;2024-02-14T05:20:00;98790.13;;;6.80;77.80
53719;BME280;39616;48.872;9.390;2024-02-14T05:22:30;98789.91;;;6.87;77.01
53719;BME280;39616;48.872;9.390;2024-02-14T05:25:01;98782.31;;;6.84;77.38
53719;BME280;39616;48.872;9.390;2024-02-14T05:27:31;98783.09;;;6.74;78.04
53719;BME280;39616;48.872;9.390;2024-02-14T05:30:05;98789.59;;;6.83;77.77
53719;BME280;39616;48.872;9.390;2024-02-14T05:32:36;98792.81;;;6.80;77.85
53719;BME280;39616;48.872;9.390;2024-02-14T05:35:06;98788.22;;;6.81;78.37
53719;BME280;39616;48.872;9.390;2024-02-14T05:37:38;98778.53;;;6.80;77.76
53719;BME280;39616;48.872;9.390;2024-02-14T05:40:08;98778.03;;;6.83;78.13
53719;BME280;39616;48.872;9.390;2024-02-14T05:42:38;98791.28;;;6.89;77.36
53719;BME280;39616;48.872;9.390;2024-02-14T05:45:09;98791.28;;;6.89;77.68
53719;BME280;39616;48.872;9.390;2024-02-14T05:47:40;98789.66;;;6.93;76.75
53719;BME280;39616;48.872;9.390;2024-02-14T05:50:10;98788.59;;;6.94;77.28
53719;BME280;39616;48.872;9.390;2024-02-14T05:52:41;98790.50;;;6.99;76.78
53719;BME280;39616;48.872;9.390;2024-02-14T05:55:12;98782.69;;;7.02;76.50
53719;BME280;39616;48.872;9.390;2024-02-14T05:57:43;98792.22;;;7.15;75.26
53719;BME280;39616;48.872;9.390;2024-02-14T06:00:13;98783.63;;;7.23;74.83
53719;BME280;39616;48.872;9.390;2024-02-14T06:02:44;98783.63;;;7.23;75.11
53719;BME280;39616;48.872;9.390;2024-02-14T06:05:15;98770.94;;;7.24;75.20
53719;BME280;39616;48.872;9.390;2024-02-14T06:07:46;98774.19;;;7.26;75.33
53719;BME280;39616;48.872;9.390;2024-02-14T06:10:17;98770.13;;;7.23;75.87
53719;BME280;39616;48.872;9.390;2024-02-14T06:12:48;98776.56;;;7.12;76.68
53719;BME280;39616;48.872;9.390;2024-02-14T06:15:19;98773.00;;;7.07;77.28
53719;BME280;39616;48.872;9.390;2024-02-14T06:17:49;98783.28;;;7.10;76.81
53719;BME280;39616;48.872;9.390;2024-02-14T06:20:20;98782.22;;;7.11;76.45
53719;BME280;39616;48.872;9.390;2024-02-14T06:22:50;98782.53;;;7.19;75.71
53719;BME280;39616;48.872;9.390;2024-02-14T06:25:21;98776.59;;;7.22;75.93
53719;BME280;39616;48.872;9.390;2024-02-14T06:27:51;98785.22;;;7.19;76.20
53719;BME280;39616;48.872;9.390;2024-02-14T06:30:22;98781.47;;;7.25;75.39
53719;BME280;39616;48.872;9.390;2024-02-14T06:32:52;98785.28;;;7.30;74.88
53719;BME280;39616;48.872;9.390;2024-02-14T06:35:22;98797.94;;;7.29;75.68
53719;BME280;39616;48.872;9.390;2024-02-14T06:37:52;98786.59;;;7.32;74.59
53719;BME280;39616;48.872;9.390;2024-02-14T06:40:23;98797.44;;;7.37;74.45
53719;BME280;39616;48.872;9.390;2024-02-14T06:42:53;98793.66;;;7.43;73.20
53719;BME280;39616;48.872;9.390;2024-02-14T06:45:28;98802.84;;;7.42;72.76
53719;BME280;39616;48.872;9.390;2024-02-14T06:47:58;98806.38;;;7.48;73.04
53719;BME280;39616;48.872;9.390;2024-02-14T06:50:29;98792.91;;;7.53;71.79
53719;BME280;39616;48.872;9.390;2024-02-14T06:52:59;98798.06;;;7.60;71.68
53719;BME280;39616;48.872;9.390;2024-02-14T06:55:30;98803.69;;;7.48;72.54
53719;BME280;39616;48.872;9.390;2024-02-14T06:58:02;98792.63;;;7.49;72.13
53719;BME280;39616;48.872;9.390;2024-02-14T07:00:34;98795.31;;;7.49;72.19
53719;BME280;39616;48.872;9.390;2024-02-14T07:03:05;98811.50;;;7.49;71.84
53719;BME280;39616;48.872;9.390;2024-02-14T07:05:35;98803.13;;;7.51;72.22
53719;BME280;39616;48.872;9.390;2024-02-14T07:08:06;98804.22;;;7.50;72.34
53719;BME280;39616;48.872;9.390;2024-02-14T07:10:36;98816.91;;;7.44;72.06
53719;BME280;39616;48.872;9.390;2024-02-14T07:13:06;98811.78;;;7.48;71.92
53719;BME280;39616;48.872;9.390;2024-02-14T07:15:36;98809.09;;;7.48;72.90
53719;BME280;39616;48.872;9.390;2024-02-14T07:18:07;98812.31;;;7.45;72.51
53719;BME280;39616;48.872;9.390;2024-02-14T07:20:39;98815.81;;;7.50;72.71
53719;BME280;39616;48.872;9.390;2024-02-14T07:23:10;98812.84;;;7.47;73.65
53719;BME280;39616;48.872;9.390;2024-02-14T07:25:40;98816.38;;;7.47;72.96
53719;BME280;39616;48.872;9.390;2024-02-14T07:28:11;98827.16;;;7.47;72.90
53719;BME280;39616;48.872;9.390;2024-02-14T07:30:41;98825.81;;;7.45;73.26
53719;BME280;39616;48.872;9.390;2024-02-14T07:33:11;98822.28;;;7.44;74.14
53719;BME280;39616;48.872;9.390;2024-02-14T07:35:42;98827.13;;;7.42;74.27
53719;BME280;39616;48.872;9.390;2024-02-14T07:38:13;98833.09;;;7.44;73.50
53719;BME280;39616;48.872;9.390;2024-02-14T07:40:43;98828.22;;;7.46;74.51
53719;BME280;39616;48.872;9.390;2024-02-14T07:43:14;98832.00;;;7.45;74.31
53719;BME280;39616;48.872;9.390;2024-02-14T07:45:44;98838.78;;;7.48;74.06
53719;BME280;39616;48.872;9.390;2024-02-14T07:48:14;98839.56;;;7.48;74.37
53719;BME280;39616;48.872;9.390;2024-02-14T07:50:45;98847.09;;;7.46;74.87
53719;BME280;39616;48.872;9.390;2024-02-14T07:53:15;98843.13;;;7.64;74.24
53719;BME280;39616;48.872;9.390;2024-02-14T07:55:46;98846.94;;;7.68;74.84
53719;BME280;39616;48.872;9.390;2024-02-14T07:58:16;98856.41;;;7.71;74.38
53719;BME280;39616;48.872;9.390;2024-02-14T08:00:46;98849.66;;;7.79;74.30
53719;BME280;39616;48.872;9.390;2024-02-14T08:03:17;98845.13;;;7.89;74.38
53719;BME280;39616;48.872;9.390;2024-02-14T08:05:47;98849.75;;;7.99;74.05
53719;BME280;39616;48.872;9.390;2024-02-14T08:08:18;98846.75;;;8.06;73.89
53719;BME280;39616;48.872;9.390;2024-02-14T08:10:48;98843.25;;;8.05;74.46
53719;BME280;39616;48.872;9.390;2024-02-14T08:13:18;98851.63;;;8.04;75.07
53719;BME280;39616;48.872;9.390;2024-02-14T08:15:49;98855.16;;;8.09;74.64
53719;BME280;39616;48.872;9.390;2024-02-14T08:18:19;98842.16;;;8.06;74.58
53719;BME280;39616;48.872;9.390;2024-02-14T08:20:50;98845.97;;;8.00;75.21
53719;BME280;39616;48.872;9.390;2024-02-14T08:23:20;98857.06;;;8.14;74.40
53719;BME280;39616;48.872;9.390;2024-02-14T08:25:51;98850.28;;;8.16;74.84
53719;BME280;39616;48.872;9.390;2024-02-14T08:28:21;98848.69;;;8.15;74.70
53719;BME280;39616;48.872;9.390;2024-02-14T08:30:51;98846.03;;;8.36;72.80
53719;BME280;39616;48.872;9.390;2024-02-14T08:33:22;98840.09;;;8.49;72.68
53719;BME280;39616;48.872;9.390;2024-02-14T08:35:53;98846.84;;;8.57;72.71
53719;BME280;39616;48.872;9.390;2024-02-14T08:38:27;98843.59;;;8.65;72.20
53719;BME280;39616;48.872;9.390;2024-02-14T08:40:57;98852.25;;;8.67;71.85
53719;BME280;39616;48.872;9.390;2024-02-14T08:43:28;98852.00;;;8.74;72.15
53719;BME280;39616;48.872;9.390;2024-02-14T08:45:59;98849.84;;;8.70;72.22
53719;BME280;39616;48.872;9.390;2024-02-14T08:48:29;98853.91;;;8.73;72.28
53719;BME280;39616;48.872;9.390;2024-02-14T08:51:03;98854.94;;;8.98;71.67
53719;BME280;39616;48.872;9.390;2024-02-14T08:53:34;98845.75;;;8.99;72.02
53719;BME280;39616;48.872;9.390;2024-02-14T08:56:04;98847.06;;;9.11;70.75
53719;BME280;39616;48.872;9.390;2024-02-14T08:58:35;98843.00;;;9.19;70.70
53719;BME280;39616;48.872;9.390;2024-02-14T09:01:05;98841.81;;;9.51;69.92
53719;BME280;39616;48.872;9.390;2024-02-14T09:03:37;98847.50;;;9.49;71.03
53719;BME280;39616;48.872;9.390;2024-02-14T09:06:07;98850.97;;;9.60;70.16
53719;BME280;39616;48.872;9.390;2024-02-14T09:08:37;98852.78;;;9.85;68.62
53719;BME280;39616;48.872;9.390;2024-02-14T09:11:08;98846.47;;;10.00;68.58
53719;BME280;39616;48.872;9.390;2024-02-14T09:13:38;98845.00;;;10.18;68.41
53719;BME280;39616;48.872;9.390;2024-02-14T09:16:10;98848.81;;;10.11;68.25
53719;BME280;39616;48.872;9.390;2024-02-14T09:18:41;98857.19;;;10.20;67.17
53719;BME280;39616;48.872;9.390;2024-02-14T09:21:11;98853.19;;;10.07;68.07
53719;BME280;39616;48.872;9.390;2024-02-14T09:23:41;98847.66;;;10.23;67.47
53719;BME280;39616;48.872;9.390;2024-02-14T09:26:12;98854.97;;;10.32;67.75
53719;BME280;39616;48.872;9.390;2024-02-14T09:28:43;98869.56;;;10.36;68.43
53719;BME280;39616;48.872;9.390;2024-02-14T09:31:17;98869.63;;;10.31;67.97
53719;BME280;39616;48.872;9.390;2024-02-14T09:33:49;98871.19;;;10.37;67.46
53719;BME280;39616;48.872;9.390;2024-02-14T09:36:19;98874.94;;;10.42;68.04
53719;BME280;39616;48.872;9.390;2024-02-14T09:38:51;98871.91;;;10.53;67.37
53719;BME280;39616;48.872;9.390;2024-02-14T09:43:53;98871.84;;;10.58;67.15
53719;BME280;39616;48.872;9.390;2024-02-14T09:46:24;98868.09;;;10.54;68.05
53719;BME280;39616;48.872;9.390;2024-02-14T09:48:58;98861.75;;;10.64;67.80
53719;BME280;39616;48.872;9.390;2024-02-14T09:51:32;98865.13;;;10.85;67.38
53719;BME280;39616;48.872;9.390;2024-02-14T09:54:02;98862.78;;;10.73;68.55
53719;BME280;39616;48.872;9.390;2024-02-14T09:56:33;98855.78;;;10.96;66.72
53719;BME280;39616;48.872;9.390;2024-02-14T09:59:04;98857.28;;;11.12;66.86
53719;BME280;39616;48.872;9.390;2024-02-14T10:01:36;98854.06;;;11.58;64.95
53719;BME280;39616;48.872;9.390;2024-02-14T10:04:06;98855.91;;;12.06;63.99
53719;BME280;39616;48.872;9.390;2024-02-14T10:06:37;98839.66;;;12.57;63.27
53719;BME280;39616;48.872;9.390;2024-02-14T10:09:07;98841.84;;;12.88;60.95
53719;BME280;39616;48.872;9.390;2024-02-14T10:11:40;98842.47;;;13.45;59.43
53719;BME280;39616;48.872;9.390;2024-02-14T10:14:10;98836.59;;;13.66;59.70
53719;BME280;39616;48.872;9.390;2024-02-14T10:16:43;98842.22;;;14.11;58.46
53719;BME280;39616;48.872;9.390;2024-02-14T10:19:16;98835.63;;;14.48;57.61
53719;BME280;39616;48.872;9.390;2024-02-14T10:22:05;98845.16;;;14.37;57.95
53719;BME280;39616;48.872;9.390;2024-02-14T10:24:35;98839.81;;;14.32;57.16
53719;BME280;39616;48.872;9.390;2024-02-14T10:27:06;98840.91;;;13.94;59.08
53719;BME280;39616;48.872;9.390;2024-02-14T10:29:38;98843.22;;;14.01;58.85
53719;BME280;39616;48.872;9.390;2024-02-14T10:32:09;98850.47;;;14.06;60.15
53719;BME280;39616;48.872;9.390;2024-02-14T10:34:40;98845.44;;;14.35;59.44
53719;BME280;39616;48.872;9.390;2024-02-14T10:37:13;98837.44;;;14.16;58.95
53719;BME280;39616;48.872;9.390;2024-02-14T10:39:45;98839.72;;;14.37;58.75
53719;BME280;39616;48.872;9.390;2024-02-14T10:42:16;98833.59;;;13.67;61.47
53719;BME280;39616;48.872;9.390;2024-02-14T10:44:46;98836.31;;;14.17;61.28
53719;BME280;39616;48.872;9.390;2024-02-14T10:47:20;98837.03;;;14.45;58.99
53719;BME280;39616;48.872;9.390;2024-02-14T10:49:51;98837.03;;;14.45;61.24
53719;BME280;39616;48.872;9.390;2024-02-14T10:52:23;98839.50;;;14.69;59.74
53719;BME280;39616;48.872;9.390;2024-02-14T10:54:56;98844.22;;;14.78;59.23
53719;BME280;39616;48.872;9.390;2024-02-14T10:57:30;98845.50;;;14.58;59.66
53719;BME280;39616;48.872;9.390;2024-02-14T11:00:09;98829.66;;;15.22;60.10
53719;BME280;39616;48.872;9.390;2024-02-14T11:02:43;98831.47;;;15.66;58.34
53719;BME280;39616;48.872;9.390;2024-02-14T11:05:14;98842.66;;;14.63;59.67
53719;BME280;39616;48.872;9.390;2024-02-14T11:07:47;98844.81;;;14.52;61.33
53719;BME280;39616;48.872;9.390;2024-02-14T11:10:20;98843.31;;;14.91;59.98
53719;BME280;39616;48.872;9.390;2024-02-14T11:12:54;98849.72;;;14.27;62.00
53719;BME280;39616;48.872;9.390;2024-02-14T11:15:24;98846.25;;;14.49;62.16
53719;BME280;39616;48.872;9.390;2024-02-14T11:18:04;98849.84;;;14.22;63.17
53719;BME280;39616;48.872;9.390;2024-02-14T11:20:35;98846.47;;;14.03;63.09
53719;BME280;39616;48.872;9.390;2024-02-14T11:23:07;98842.47;;;13.45;64.50
53719;BME280;39616;48.872;9.390;2024-02-14T11:25:43;98838.03;;;13.63;65.60
53719;BME280;39616;48.872;9.390;2024-02-14T11:28:18;98846.50;;;13.62;64.80
53719;BME280;39616;48.872;9.390;2024-02-14T11:30:51;98847.31;;;13.48;65.12
53719;BME280;39616;48.872;9.390;2024-02-14T11:33:23;98843.25;;;13.18;67.23
53719;BME280;39616;48.872;9.390;2024-02-14T11:35:56;98847.53;;;13.05;68.27
53719;BME280;39616;48.872;9.390;2024-02-14T11:38:28;98848.06;;;13.08;67.73
53719;BME280;39616;48.872;9.390;2024-02-14T11:41:00;98850.16;;;12.97;69.52
53719;BME280;39616;48.872;9.390;2024-02-14T11:43:30;98842.25;;;12.81;69.31
53719;BME280;39616;48.872;9.390;2024-02-14T11:46:01;98845.56;;;12.78;70.14
53719;BME280;39616;48.872;9.390;2024-02-14T11:48:34;98836.94;;;12.57;71.29
53719;BME280;39616;48.872;9.390;2024-02-14T11:51:04;98838.63;;;12.53;71.33
53719;BME280;39616;48.872;9.390;2024-02-14T11:53:38;98841.72;;;12.47;72.23
53719;BME280;39616;48.872;9.390;2024-02-14T11:56:09;98834.16;;;12.44;72.91
53719;BME280;39616;48.872;9.390;2024-02-14T11:58:39;98838.09;;;12.51;72.41
53719;BME280;39616;48.872;9.390;2024-02-14T12:01:09;98832.38;;;12.53;72.74
53719;BME280;39616;48.872;9.390;2024-02-14T12:03:41;98835.81;;;12.58;72.94
53719;BME280;39616;48.872;9.390;2024-02-14T12:06:12;98836.13;;;12.57;73.07
53719;BME280;39616;48.872;9.390;2024-02-14T12:08:42;98837.97;;;12.43;73.14
53719;BME280;39616;48.872;9.390;2024-02-14T12:11:12;98846.44;;;12.41;74.38
53719;BME280;39616;48.872;9.390;2024-02-14T12:13:43;98847.97;;;12.47;74.17
53719;BME280;39616;48.872;9.390;2024-02-14T12:16:19;98847.47;;;12.45;74.71
53719;BME280;39616;48.872;9.390;2024-02-14T12:19:03;98847.41;;;12.31;75.56
53719;BME280;39616;48.872;9.390;2024-02-14T12:21:37;98852.84;;;12.31;75.79
53719;BME280;39616;48.872;9.390;2024-02-14T12:24:10;98852.47;;;12.38;75.73
53719;BME280;39616;48.872;9.390;2024-02-14T12:26:42;98858.78;;;12.52;75.75
53719;BME280;39616;48.872;9.390;2024-02-14T12:29:12;98858.78;;;12.52;75.82
53719;BME280;39616;48.872;9.390;2024-02-14T12:31:45;98853.50;;;12.42;75.03
53719;BME280;39616;48.872;9.390;2024-02-14T12:34:16;98860.69;;;12.33;75.21
53719;BME280;39616;48.872;9.390;2024-02-14T12:36:48;98864.44;;;12.18;75.03
53719;BME280;39616;48.872;9.390;2024-02-14T12:39:18;98849.16;;;12.22;75.57
53719;BME280;39616;48.872;9.390;2024-02-14T12:41:50;98835.94;;;12.35;75.26
53719;BME280;39616;48.872;9.390;2024-02-14T12:44:21;98851.38;;;12.39;74.16
53719;BME280;39616;48.872;9.390;2024-02-14T12:46:51;98847.13;;;12.66;73.17
53719;BME280;39616;48.872;9.390;2024-02-14T12:49:22;98836.22;;;12.52;73.67
53719;BME280;39616;48.872;9.390;2024-02-14T12:51:52;98832.41;;;12.99;72.90
53719;BME280;39616;48.872;9.390;2024-02-14T12:54:22;98834.00;;;13.33;72.70
53719;BME280;39616;48.872;9.390;2024-02-14T12:56:53;98824.31;;;13.27;70.74
53719;BME280;39616;48.872;9.390;2024-02-14T12:59:23;98824.94;;;12.91;72.44
53719;BME280;39616;48.872;9.390;2024-02-14T13:01:54;98822.06;;;13.15;71.56
53719;BME280;39616;48.872;9.390;2024-02-14T13:04:24;98811.38;;;13.46;70.50
53719;BME280;39616;48.872;9.390;2024-02-14T13:06:54;98806.53;;;13.71;71.40
53719;BME280;39616;48.872;9.390;2024-02-14T13:09:25;98808.53;;;13.79;69.84
53719;BME280;39616;48.872;9.390;2024-02-14T13:11:56;98806.69;;;14.24;69.31
53719;BME280;39616;48.872;9.390;2024-02-14T13:14:26;98809.19;;;14.35;68.02
53719;BME280;39616;48.872;9.390;2024-02-14T13:16:56;98811.19;;;14.65;67.34
53719;BME280;39616;48.872;9.390;2024-02-14T13:19:27;98807.38;;;14.66;67.72
53719;BME280;39616;48.872;9.390;2024-02-14T13:21:57;98812.88;;;14.16;68.38
53719;BME280;39616;48.872;9.390;2024-02-14T13:24:27;98802.69;;;13.86;69.25
53719;BME280;39616;48.872;9.390;2024-02-14T13:26:58;98802.16;;;13.84;70.05